This is the latest recevied weather packets stored in our database for station/object 9W2CEW-1. If no packets are shown the sender has not sent any weather packets the latest 10 day(s).
| Time | Temp. | Humidity | Pressure | Rain* | Wind** | Luminosity | Snow |
|---|---|---|---|---|---|---|---|
| 1788032303 | 37.78° C | 43% | 1003.2 hPa | - | - | - | - |
| 1788031415 | 32.22° C | 55% | 1005.4 hPa | - | - | - | - |
| 1788030515 | 32.22° C | 56% | 1005.5 hPa | - | - | - | - |
| 1788030430 | 36.67° C | 45% | 1002.9 hPa | - | - | - | - |
| 1788029931 | 36.11° C | 46% | 1002.4 hPa | - | - | - | - |
| 1788029615 | 31.67° C | 56% | 1005.6 hPa | - | - | - | - |
| 1788029028 | 36.67° C | 46% | 1002.1 hPa | - | - | - | - |
| 1788028715 | 32.22° C | 54% | 1005.5 hPa | - | - | - | - |
| 1788028228 | 37.78° C | 42% | 1002.1 hPa | - | - | - | - |
| 1788027818 | 32.78° C | 54% | 1005.2 hPa | - | - | - | - |
| 1788026915 | 31.67° C | 56% | 1005.3 hPa | - | - | - | - |
| 1788026015 | 32.22° C | 58% | 1005.5 hPa | - | - | - | - |
| 1788025653 | 38.33° C | 41% | 1001.9 hPa | - | - | - | - |
| 1788025115 | 32.22° C | 55% | 1005.8 hPa | - | - | - | - |
| 1788024215 | 31.67° C | 52% | 1006.5 hPa | - | - | - | - |
| 1788023992 | 36.67° C | 44% | 1001.8 hPa | - | - | - | - |
| 1788023314 | 29.44° C | 57% | 1006.6 hPa | - | - | - | - |
| 1788022414 | 30.56° C | 64% | 1006.3 hPa | - | - | - | - |
| 1788021514 | 37.78° C | 43% | 1006.4 hPa | - | - | - | - |
| 1788020614 | 40° C | 39% | 1006.5 hPa | - | - | - | - |
| 1788019714 | 40.56° C | 38% | 1006 hPa | - | - | - | - |
| 1788018814 | 40° C | 38% | 1005.8 hPa | - | - | - | - |
| 1788017914 | 40.56° C | 38% | 1006 hPa | - | - | - | - |
| 1788017014 | 37.78° C | 43% | 1006.3 hPa | - | - | - | - |
| 1788016114 | 39.44° C | 40% | 1006.1 hPa | - | - | - | - |
* Rain since midnight (hover to see other rain measurements)
** Current wind speed in m/s (hover to see current wind gust speed)